createdAt,value
2023-10-10T00:00:17.996Z,0.000000
2023-10-10T00:05:18.325Z,0.000000
2023-10-10T00:10:18.260Z,0.000000
2023-10-10T00:15:18.094Z,0.000000
2023-10-10T00:20:18.259Z,0.000000
2023-10-10T00:25:18.362Z,0.000000
2023-10-10T00:30:18.185Z,0.000000
2023-10-10T00:35:18.195Z,0.000000
2023-10-10T00:40:18.193Z,0.000000
2023-10-10T00:45:18.219Z,0.000000
2023-10-10T00:50:18.386Z,0.000000
2023-10-10T00:55:18.340Z,0.000000
2023-10-10T01:00:18.109Z,0.000000
2023-10-10T01:05:18.234Z,0.000000
2023-10-10T01:10:16.229Z,0.000000
2023-10-10T01:15:16.496Z,0.000000
2023-10-10T01:20:16.373Z,0.000000
2023-10-10T01:25:16.725Z,0.000000
2023-10-10T01:30:16.276Z,0.000000
2023-10-10T01:35:16.527Z,0.000000
2023-10-10T01:40:16.371Z,0.000000
2023-10-10T01:45:17.230Z,0.000000
2023-10-10T01:50:16.397Z,0.000000
2023-10-10T01:55:16.626Z,0.000000
2023-10-10T02:00:16.556Z,0.000000
2023-10-10T02:05:16.427Z,0.000000
2023-10-10T02:10:16.423Z,0.000000
2023-10-10T02:15:16.481Z,0.000000
2023-10-10T02:20:16.460Z,0.000000
2023-10-10T02:25:16.601Z,0.000000
2023-10-10T02:30:16.272Z,0.000000
2023-10-10T02:35:16.737Z,0.000000
2023-10-10T02:40:16.671Z,0.000000
2023-10-10T02:45:16.497Z,0.000000
2023-10-10T02:50:16.413Z,0.000000
2023-10-10T02:55:16.513Z,0.000000
2023-10-10T03:00:16.552Z,0.000000
2023-10-10T03:05:16.764Z,0.000000
2023-10-10T03:10:16.647Z,0.000000
2023-10-10T03:15:16.734Z,0.000000
2023-10-10T03:20:16.499Z,0.000000
2023-10-10T03:25:56.200Z,0.000000
2023-10-10T03:30:17.729Z,0.000000
2023-10-10T03:35:17.473Z,0.000000
2023-10-10T03:40:17.511Z,0.000000
2023-10-10T03:45:18.740Z,0.000000
2023-10-10T03:50:17.728Z,0.000000
2023-10-10T03:55:17.532Z,0.000000
2023-10-10T04:00:17.846Z,0.000000
2023-10-10T04:05:27.161Z,0.000000
2023-10-10T04:10:16.866Z,0.000000
2023-10-10T04:15:16.716Z,0.000000
2023-10-10T04:20:16.630Z,0.000000
2023-10-10T04:25:16.977Z,0.000000
2023-10-10T04:30:16.791Z,0.000000
2023-10-10T04:35:16.992Z,0.000000
2023-10-10T04:40:16.643Z,0.000000
2023-10-10T04:45:16.622Z,0.000000
2023-10-10T04:50:16.800Z,0.000000
2023-10-10T04:55:16.645Z,0.000000
2023-10-10T05:00:17.143Z,0.000000
2023-10-10T05:05:16.718Z,0.000000
2023-10-10T05:10:17.075Z,0.000000
2023-10-10T05:15:16.840Z,0.000000
2023-10-10T05:20:16.799Z,0.000000
2023-10-10T05:25:16.885Z,0.000000
2023-10-10T05:30:16.807Z,0.000000
2023-10-10T05:35:16.815Z,0.000000
2023-10-10T05:40:16.781Z,0.000000
2023-10-10T05:45:18.347Z,0.000000
2023-10-10T05:50:16.780Z,0.000000
2023-10-10T05:55:17.023Z,0.000000
2023-10-10T06:00:16.981Z,0.000000
2023-10-10T06:05:16.864Z,0.000000
2023-10-10T06:10:16.815Z,0.000000
2023-10-10T06:15:17.314Z,0.000000
2023-10-10T06:20:17.014Z,0.000000
2023-10-10T06:25:16.932Z,0.000000
2023-10-10T06:30:16.856Z,0.000000
2023-10-10T06:35:16.939Z,0.000000
2023-10-10T06:40:16.937Z,0.000000
2023-10-10T06:45:17.098Z,0.000000
2023-10-10T06:50:17.025Z,0.000000
2023-10-10T06:55:17.408Z,0.000000
2023-10-10T07:00:16.982Z,0.000000
2023-10-10T07:05:17.091Z,0.000000
2023-10-10T07:10:16.957Z,0.000000
2023-10-10T07:15:17.179Z,0.000000
2023-10-10T07:20:17.332Z,0.000000
2023-10-10T07:25:17.319Z,0.000000
2023-10-10T07:30:17.848Z,0.000000
2023-10-10T07:35:48.683Z,0.000000
2023-10-10T07:40:19.381Z,0.000000
2023-10-10T07:45:19.224Z,0.000000
2023-10-10T07:50:18.495Z,0.000000
2023-10-10T07:55:18.394Z,0.000000
2023-10-10T08:00:18.085Z,0.000000
2023-10-10T08:05:18.215Z,0.000000
2023-10-10T08:10:18.207Z,0.000000
2023-10-10T08:15:18.149Z,0.000000
2023-10-10T08:20:18.274Z,0.000000
2023-10-10T08:25:18.191Z,0.000000
2023-10-10T08:30:18.113Z,0.000000
2023-10-10T08:35:18.611Z,0.000000
2023-10-10T08:40:18.130Z,0.000000
2023-10-10T08:45:18.340Z,0.000000
2023-10-10T08:50:18.476Z,0.000000
2023-10-10T08:55:18.169Z,0.000000
2023-10-10T09:00:18.220Z,0.000000
2023-10-10T09:05:16.617Z,0.000000
2023-10-10T09:10:16.244Z,0.000000
2023-10-10T09:15:16.336Z,0.000000
2023-10-10T09:20:16.598Z,0.000000
2023-10-10T09:25:16.340Z,0.000000
2023-10-10T09:30:16.196Z,0.000000
2023-10-10T09:35:16.380Z,0.000000
2023-10-10T09:40:16.542Z,0.000000
2023-10-10T09:45:17.043Z,0.000000
2023-10-10T09:50:16.839Z,0.000000
2023-10-10T09:55:16.674Z,0.000000
2023-10-10T10:00:27.190Z,0.000000
2023-10-10T10:05:16.553Z,0.000000
2023-10-10T10:10:16.366Z,0.000000
2023-10-10T10:15:16.737Z,0.000000
2023-10-10T10:20:16.507Z,0.000000
2023-10-10T10:25:16.426Z,0.000000
2023-10-10T10:30:16.534Z,0.000000
2023-10-10T10:35:16.698Z,0.000000
2023-10-10T10:40:16.511Z,0.000000
2023-10-10T10:45:16.498Z,0.000000
2023-10-10T10:50:16.542Z,0.000000
2023-10-10T10:55:16.411Z,0.000000
2023-10-10T11:00:16.634Z,0.000000
2023-10-10T11:05:17.005Z,0.000000
2023-10-10T11:10:16.428Z,0.000000
2023-10-10T11:15:16.623Z,0.000000
2023-10-10T11:20:16.500Z,0.000000
2023-10-10T11:25:16.700Z,0.000000
2023-10-10T11:30:16.856Z,0.000000
2023-10-10T11:35:16.629Z,0.000000
2023-10-10T11:40:16.812Z,0.000000
2023-10-10T11:45:17.558Z,0.000000
2023-10-10T11:50:16.817Z,0.000000
2023-10-10T11:55:16.713Z,0.000000
2023-10-10T12:00:26.350Z,0.000000
2023-10-10T12:05:16.809Z,0.000000
2023-10-10T12:10:16.673Z,0.000000
2023-10-10T12:15:16.743Z,0.000000
2023-10-10T12:20:17.245Z,0.000000
2023-10-10T12:25:16.719Z,0.000000
2023-10-10T12:30:16.683Z,0.000000
2023-10-10T12:35:16.898Z,0.000000
2023-10-10T12:40:16.750Z,0.000000
2023-10-10T12:45:16.744Z,0.000000
2023-10-10T12:50:16.832Z,0.000000
2023-10-10T12:55:16.861Z,0.000000
2023-10-10T13:00:16.731Z,0.000000
2023-10-10T13:05:16.867Z,0.000000
2023-10-10T13:10:16.855Z,0.000000
2023-10-10T13:15:16.738Z,0.200000
2023-10-10T13:20:16.808Z,0.500000
2023-10-10T13:25:17.012Z,0.500000
2023-10-10T13:30:16.726Z,0.500000
2023-10-10T13:35:17.139Z,0.500000
2023-10-10T13:40:16.853Z,0.500000
2023-10-10T13:45:18.573Z,0.600000
2023-10-10T13:50:16.905Z,0.700000
2023-10-10T13:55:16.861Z,0.600000
2023-10-10T14:00:16.939Z,0.600000
2023-10-10T14:05:17.123Z,0.600000
2023-10-10T14:10:16.793Z,0.700000
2023-10-10T14:15:16.989Z,0.700000
2023-10-10T14:20:16.932Z,0.700000
2023-10-10T14:25:16.984Z,0.700000
2023-10-10T14:30:17.030Z,0.600000
2023-10-10T14:35:17.174Z,0.500000
2023-10-10T14:40:16.850Z,0.500000
2023-10-10T14:45:16.916Z,0.500000
2023-10-10T14:50:17.156Z,0.500000
2023-10-10T14:55:17.189Z,0.500000
2023-10-10T15:00:17.109Z,0.600000
2023-10-10T15:05:17.105Z,0.500000
2023-10-10T15:10:17.282Z,0.700000
2023-10-10T15:15:17.051Z,0.700000
2023-10-10T15:20:17.112Z,0.500000
2023-10-10T15:25:17.195Z,0.500000
2023-10-10T15:30:17.036Z,0.600000
2023-10-10T15:35:17.070Z,1.000000
2023-10-10T15:40:17.015Z,1.100000
2023-10-10T15:45:18.571Z,1.100000
2023-10-10T15:50:17.243Z,1.000000
2023-10-10T15:55:17.101Z,0.800000
2023-10-10T16:00:17.056Z,0.600000
2023-10-10T16:05:17.718Z,0.500000
2023-10-10T16:10:17.019Z,0.800000
2023-10-10T16:15:29.723Z,1.100000
2023-10-10T16:20:17.324Z,1.100000
2023-10-10T16:25:17.282Z,1.200000
2023-10-10T16:30:17.104Z,1.300000
2023-10-10T16:35:17.461Z,1.100000
2023-10-10T16:40:17.166Z,1.200000
2023-10-10T16:45:17.420Z,1.200000
2023-10-10T16:50:17.496Z,1.000000
2023-10-10T16:55:17.487Z,1.100000
2023-10-10T17:00:17.336Z,1.200000
2023-10-10T17:05:17.712Z,1.100000
2023-10-10T17:10:17.240Z,1.200000
2023-10-10T17:15:17.409Z,1.300000
2023-10-10T17:20:17.747Z,1.400000
2023-10-10T17:25:17.991Z,1.400000
2023-10-10T17:30:17.253Z,1.500000
2023-10-10T17:35:17.603Z,1.500000
2023-10-10T17:40:17.359Z,1.100000
2023-10-10T17:45:18.282Z,1.500000
2023-10-10T20:25:18.019Z,0.000000
2023-10-10T20:30:17.673Z,0.000000
2023-10-10T20:35:17.832Z,0.000000
2023-10-10T20:40:17.663Z,0.000000
2023-10-10T20:45:17.742Z,0.000000
2023-10-10T20:50:18.178Z,0.000000
2023-10-10T20:55:17.880Z,0.000000
2023-10-10T21:00:17.748Z,0.000000
2023-10-10T21:05:17.829Z,0.000000
2023-10-10T21:10:17.777Z,0.000000
2023-10-10T21:15:17.873Z,0.000000
2023-10-10T21:20:17.869Z,0.000000
2023-10-10T21:25:18.059Z,0.000000
2023-10-10T21:30:18.105Z,0.000000
2023-10-10T21:35:18.107Z,0.000000
2023-10-10T21:40:17.905Z,0.000000
2023-10-10T21:45:18.581Z,0.000000
2023-10-10T21:50:17.875Z,0.000000
2023-10-10T21:55:17.890Z,0.000000
2023-10-10T22:00:17.833Z,0.000000
2023-10-10T22:05:18.072Z,0.000000
2023-10-10T22:10:17.894Z,0.000000
2023-10-10T22:15:18.098Z,0.000000
2023-10-10T22:20:18.077Z,0.000000
2023-10-10T22:25:17.899Z,0.000000
2023-10-10T22:30:17.981Z,0.000000
2023-10-10T22:35:18.140Z,0.000000
2023-10-10T22:40:18.314Z,0.000000
2023-10-10T22:45:18.078Z,0.000000
2023-10-10T22:50:18.440Z,0.000000
2023-10-10T22:55:17.967Z,0.000000
2023-10-10T23:00:17.950Z,0.000000
2023-10-10T23:05:18.058Z,0.000000
2023-10-10T23:10:17.960Z,0.000000
2023-10-10T23:15:18.332Z,0.000000
2023-10-10T23:20:18.235Z,0.000000
2023-10-10T23:25:18.206Z,0.000000
2023-10-10T23:30:18.164Z,0.000000
2023-10-10T23:35:18.348Z,0.000000
2023-10-10T23:40:18.060Z,0.000000
2023-10-10T23:45:19.627Z,0.000000
2023-10-10T23:50:18.333Z,0.000000
2023-10-10T23:55:18.125Z,0.000000
